Time;durP1;ratioP1;P1;durP2;ratioP2;P2;SDS_P1;SDS_P2;PMS_P1;PMS_P2;Temp;Humidity;BMP_temperature;BMP_pressure;BME280_temperature;BME280_humidity;BME280_pressure;Samples;Min_cycle;Max_cycle;Signal;HPM_P1;HPM_P2
2022/12/22 03:28:02;;;;;;;;;;;;;;;9.06;100.00;100354.13;5087849;28;19927;-75
2022/12/22 03:30:27;;;;;;;;;;;;;;;9.03;100.00;100350.97;5089475;28;19911;-74
2022/12/22 03:32:52;;;;;;;;;;;;;;;9.05;100.00;100355.09;5085984;28;20316;-75
2022/12/22 03:35:17;;;;;;;;;;;;;;;9.11;100.00;100344.97;5087985;28;19916;-75
2022/12/22 03:37:43;;;;;;;;;;;;;;;9.09;100.00;100339.03;5086318;28;19916;-77
2022/12/22 03:40:08;;;;;;;;;;;;;;;9.03;100.00;100340.44;5088696;28;20030;-75
2022/12/22 03:48:01;;;;;;;;;;;;;;;8.81;100.00;100321.50;5087241;28;19927;-76
2022/12/22 03:50:27;;;;;;;;;;;;;;;8.81;100.00;100323.31;5086013;28;19915;-75
2022/12/22 03:52:52;;;;;;;;;;;;;;;8.80;100.00;100319.06;5069874;28;19915;-75
2022/12/22 03:55:17;;;;;;;;;;;;;;;8.89;100.00;100327.84;5088630;28;19989;-75
2022/12/22 03:57:42;;;;;;;;;;;;;;;8.94;100.00;100320.31;5085855;28;19916;-75
2022/12/22 04:00:08;;;;;;;;;;;;;;;8.92;100.00;100325.72;5087378;28;19919;-75
2022/12/22 04:02:33;;;;;;;;;;;;;;;8.80;100.00;100319.06;5094004;28;19928;-75
2022/12/22 04:04:58;;;;;;;;;;;;;;;8.76;100.00;100325.59;5088237;28;19920;-75
2022/12/22 04:07:24;;;;;;;;;;;;;;;8.75;100.00;100326.56;5087594;28;19934;-75
2022/12/22 04:15:17;;;;;;;;;;;;;;;8.71;100.00;100320.78;5087685;28;20544;-77
2022/12/22 04:17:43;;;;;;;;;;;;;;;8.76;100.00;100322.97;5087293;28;20038;-74
2022/12/22 04:20:08;;;;;;;;;;;;;;;8.81;100.00;100333.84;5086824;28;20292;-75
2022/12/22 04:22:34;;;;;;;;;;;;;;;8.81;100.00;100331.22;5087696;28;20392;-75
2022/12/22 04:24:59;;;;;;;;;;;;;;;8.82;100.00;100335.50;5086275;28;20281;-75
2022/12/22 04:27:24;;;;;;;;;;;;;;;8.84;100.00;100337.00;5087061;28;19927;-76
2022/12/22 04:29:50;;;;;;;;;;;;;;;8.85;100.00;100329.94;5085984;28;20295;-75
2022/12/22 04:32:15;;;;;;;;;;;;;;;8.88;100.00;100331.44;5087856;28;19938;-77
2022/12/22 04:34:40;;;;;;;;;;;;;;;8.90;100.00;100327.66;5069852;28;19927;-74
2022/12/22 04:37:05;;;;;;;;;;;;;;;8.90;100.00;100329.47;5086268;28;20373;-74
2022/12/22 04:39:30;;;;;;;;;;;;;;;8.90;100.00;100317.13;5086353;28;19967;-75
2022/12/22 04:41:56;;;;;;;;;;;;;;;8.91;100.00;100313.53;5085401;28;20151;-74
2022/12/22 04:44:21;;;;;;;;;;;;;;;8.94;100.00;100307.97;5087212;28;19961;-75
2022/12/22 04:46:46;;;;;;;;;;;;;;;8.94;100.00;100301.88;5068939;28;19919;-75
2022/12/22 04:49:11;;;;;;;;;;;;;;;8.89;100.00;100291.00;5086034;28;19920;-75
2022/12/22 04:51:37;;;;;;;;;;;;;;;8.89;100.00;100291.81;5087430;28;19916;-77
2022/12/22 04:54:02;;;;;;;;;;;;;;;8.88;100.00;100290.16;5086894;28;19934;-74
2022/12/22 04:56:27;;;;;;;;;;;;;;;8.83;100.00;100277.44;5086960;28;19914;-75
2022/12/22 04:58:52;;;;;;;;;;;;;;;8.87;100.00;100277.16;5085829;28;19916;-75
2022/12/22 05:01:18;;;;;;;;;;;;;;;8.85;100.00;100279.94;5087097;28;20508;-75
2022/12/22 05:03:43;;;;;;;;;;;;;;;8.86;100.00;100273.69;5087370;28;20298;-75
2022/12/22 05:06:09;;;;;;;;;;;;;;;8.85;100.00;100274.69;5086639;28;19972;-74
2022/12/22 05:08:35;;;;;;;;;;;;;;;8.84;100.00;100273.00;5083799;28;19919;-74
2022/12/22 05:11:01;;;;;;;;;;;;;;;8.84;100.00;100270.38;5086704;28;19939;-75
2022/12/22 05:13:27;;;;;;;;;;;;;;;8.88;100.00;100278.81;5086762;28;20108;-75
2022/12/22 05:15:52;;;;;;;;;;;;;;;8.87;100.00;100266.63;5086007;28;20083;-75
2022/12/22 05:18:17;;;;;;;;;;;;;;;8.84;100.00;100265.13;5086337;28;19919;-74
2022/12/22 05:20:42;;;;;;;;;;;;;;;8.83;100.00;100266.09;5069347;28;20064;-75
2022/12/22 05:23:07;;;;;;;;;;;;;;;8.85;100.00;100269.41;5088422;28;19970;-75
2022/12/22 05:25:33;;;;;;;;;;;;;;;8.86;100.00;100257.91;5089835;28;20232;-75
2022/12/22 05:27:58;;;;;;;;;;;;;;;8.82;100.00;100265.28;5088644;28;19922;-74
2022/12/22 05:30:23;;;;;;;;;;;;;;;8.78;100.00;100257.84;5088968;28;20345;-75
2022/12/22 05:32:49;;;;;;;;;;;;;;;8.75;100.00;100250.25;5089963;28;19919;-75
2022/12/22 05:35:14;;;;;;;;;;;;;;;8.69;100.00;100248.22;5089195;28;20417;-75
2022/12/22 05:37:39;;;;;;;;;;;;;;;8.50;100.00;100252.69;5089555;28;19995;-75
2022/12/22 05:40:06;;;;;;;;;;;;;;;8.45;100.00;100247.06;5089843;28;19912;-75
2022/12/22 05:42:38;;;;;;;;;;;;;;;8.36;100.00;100240.03;5090830;28;19912;-74
2022/12/22 05:45:23;;;;;;;;;;;;;;;8.24;100.00;100245.50;5089461;28;19923;-75
2022/12/22 05:47:49;;;;;;;;;;;;;;;8.16;100.00;100241.97;5089689;28;20308;-75
2022/12/22 05:50:17;;;;;;;;;;;;;;;8.16;100.00;100245.44;5089612;28;19980;-75
2022/12/22 05:52:42;;;;;;;;;;;;;;;8.02;100.00;100252.03;5089989;28;20345;-75
2022/12/22 05:55:08;;;;;;;;;;;;;;;7.73;100.00;100214.56;5090041;28;19916;-75
2022/12/22 05:57:34;;;;;;;;;;;;;;;7.86;100.00;100251.00;5090242;28;19919;-74
2022/12/22 05:59:59;;;;;;;;;;;;;;;7.76;100.00;100261.59;5093847;28;20382;-75
2022/12/22 06:02:24;;;;;;;;;;;;;;;7.66;100.00;100263.41;5086415;28;20422;-74
2022/12/22 06:04:50;;;;;;;;;;;;;;;7.56;100.00;100261.69;5088076;28;19919;-75
2022/12/22 06:07:15;;;;;;;;;;;;;;;7.57;100.00;100275.63;5088820;28;19969;-74
2022/12/22 06:09:40;;;;;;;;;;;;;;;7.46;100.00;100278.44;5086926;28;19924;-74
2022/12/22 06:12:06;;;;;;;;;;;;;;;7.40;100.00;100278.06;5087762;28;19954;-75
2022/12/22 06:14:31;;;;;;;;;;;;;;;7.34;100.00;100278.63;5087254;28;20454;-74
2022/12/22 06:16:57;;;;;;;;;;;;;;;7.27;100.00;100282.75;5084481;28;20053;-74
2022/12/22 06:19:22;;;;;;;;;;;;;;;7.28;100.00;100287.06;5087934;28;19926;-75
2022/12/22 06:21:47;;;;;;;;;;;;;;;7.35;100.00;100295.19;5092937;28;20373;-74
2022/12/22 06:24:12;;;;;;;;;;;;;;;7.31;100.00;100289.38;5088483;28;19997;-74
2022/12/22 06:26:38;;;;;;;;;;;;;;;7.24;100.00;100288.31;5083973;28;19950;-75
2022/12/22 06:29:03;;;;;;;;;;;;;;;7.10;100.00;100275.63;5086076;28;19935;-74
2022/12/22 06:31:28;;;;;;;;;;;;;;;7.19;100.00;100293.97;5083799;28;20333;-74
2022/12/22 06:33:53;;;;;;;;;;;;;;;7.23;100.00;100294.53;5084709;28;19920;-75
2022/12/22 06:36:19;;;;;;;;;;;;;;;7.19;100.00;100295.78;5083354;28;19915;-75
2022/12/22 06:38:44;;;;;;;;;;;;;;;7.17;100.00;100295.09;5084029;28;20100;-77
2022/12/22 06:41:09;;;;;;;;;;;;;;;7.16;100.00;100296.06;5080326;28;20040;-75
2022/12/22 06:43:34;;;;;;;;;;;;;;;7.14;100.00;100303.25;5084143;28;19924;-76
2022/12/22 06:46:00;;;;;;;;;;;;;;;7.12;100.00;100307.78;5086841;28;20854;-76
2022/12/22 06:48:25;;;;;;;;;;;;;;;7.12;100.00;100302.53;5085295;28;19947;-75
2022/12/22 06:50:50;;;;;;;;;;;;;;;6.79;100.00;100252.19;5082779;28;20367;-75
2022/12/22 06:53:15;;;;;;;;;;;;;;;7.04;100.00;100305.88;5086060;28;20264;-76
2022/12/22 06:55:41;;;;;;;;;;;;;;;7.03;100.00;100306.84;5086292;28;19916;-75
2022/12/22 06:58:06;;;;;;;;;;;;;;;6.99;100.00;100301.06;5088215;28;20760;-76
2022/12/22 07:00:33;;;;;;;;;;;;;;;6.97;100.00;100302.19;5086593;28;19923;-76
2022/12/22 07:02:58;;;;;;;;;;;;;;;6.90;100.00;100312.41;5087287;28;19912;-74
2022/12/22 07:05:24;;;;;;;;;;;;;;;6.88;100.00;100303.00;5088464;28;19945;-75
2022/12/22 07:07:49;;;;;;;;;;;;;;;6.84;100.00;100302.47;5070793;28;20124;-75
2022/12/22 07:10:15;;;;;;;;;;;;;;;6.79;100.00;100296.78;5087193;27;19916;-76
2022/12/22 07:12:40;;;;;;;;;;;;;;;6.75;100.00;100301.50;5088967;28;20025;-76
2022/12/22 07:15:06;;;;;;;;;;;;;;;6.73;100.00;100300.00;5087829;28;19912;-75
2022/12/22 07:17:31;;;;;;;;;;;;;;;6.73;100.00;100305.22;5088177;28;19912;-74
2022/12/22 07:19:56;;;;;;;;;;;;;;;6.78;100.00;100322.19;5087824;28;19915;-75
2022/12/22 07:22:22;;;;;;;;;;;;;;;6.87;100.00;100322.34;5070241;28;19966;-75
2022/12/22 07:24:47;;;;;;;;;;;;;;;6.95;100.00;100336.41;5087284;28;19974;-75
2022/12/22 07:27:12;;;;;;;;;;;;;;;6.95;100.00;100341.66;5088850;28;19981;-75
2022/12/22 07:29:39;;;;;;;;;;;;;;;7.00;100.00;100344.69;5087294;28;20443;-75
2022/12/22 07:32:04;;;;;;;;;;;;;;;6.91;100.00;100347.31;5070034;28;19985;-74
2022/12/22 07:34:30;;;;;;;;;;;;;;;6.93;100.00;100346.22;5087701;28;19911;-75
2022/12/22 07:36:55;;;;;;;;;;;;;;;6.95;100.00;100349.53;5087827;28;19912;-75
2022/12/22 07:39:20;;;;;;;;;;;;;;;6.91;100.00;100358.66;5087455;28;19916;-74
2022/12/22 07:44:29;;;;;;;;;;;;;;;6.94;100.00;100357.53;5086823;28;19965;-75
2022/12/22 07:46:54;;;;;;;;;;;;;;;6.81;100.00;100352.56;5085619;28;20229;-75
2022/12/22 07:52:03;;;;;;;;;;;;;;;6.73;100.00;100348.03;5086318;28;19942;-75
2022/12/22 07:54:29;;;;;;;;;;;;;;;6.73;100.00;100357.69;5086224;28;20324;-75
2022/12/22 07:56:54;;;;;;;;;;;;;;;6.78;100.00;100361.53;5086103;28;19912;-75
2022/12/22 07:59:20;;;;;;;;;;;;;;;6.84;100.00;100369.81;5085937;28;19912;-75
2022/12/22 08:01:45;;;;;;;;;;;;;;;6.80;100.00;100369.28;5084509;28;19915;-75
2022/12/22 08:04:11;;;;;;;;;;;;;;;6.80;100.00;100371.91;5086594;28;20515;-77
2022/12/22 08:06:36;;;;;;;;;;;;;;;6.83;100.00;100371.63;5086286;28;19916;-75
2022/12/22 08:09:02;;;;;;;;;;;;;;;6.81;100.00;100384.03;5085892;28;20141;-75
2022/12/22 08:11:28;;;;;;;;;;;;;;;6.74;100.00;100382.94;5085775;28;20806;-75
2022/12/22 08:13:53;;;;;;;;;;;;;;;6.79;100.00;100375.47;5069007;28;20032;-76
2022/12/22 08:16:20;;;;;;;;;;;;;;;6.86;100.00;100371.34;5085565;28;19989;-75
2022/12/22 08:18:45;;;;;;;;;;;;;;;6.88;100.00;100386.94;5087966;28;20386;-75
2022/12/22 08:21:10;;;;;;;;;;;;;;;6.91;100.00;100387.50;5085667;28;19912;-75
2022/12/22 08:23:36;;;;;;;;;;;;;;;6.92;100.00;100389.16;5068655;28;20343;-76
2022/12/22 08:26:01;;;;;;;;;;;;;;;6.97;100.00;100389.56;5086801;28;20229;-75
2022/12/22 08:28:26;;;;;;;;;;;;;;;6.92;100.00;100383.91;5084777;28;19937;-75
2022/12/22 08:30:52;;;;;;;;;;;;;;;6.99;100.00;100386.81;5086244;28;19911;-75
2022/12/22 08:33:17;;;;;;;;;;;;;;;7.03;100.00;100384.75;5085953;28;19919;-75
2022/12/22 08:35:42;;;;;;;;;;;;;;;7.04;100.00;100389.03;5087231;28;19927;-76
2022/12/22 08:38:09;;;;;;;;;;;;;;;6.92;100.00;100388.31;5085217;28;19929;-75
2022/12/22 08:40:34;;;;;;;;;;;;;;;7.00;100.00;100396.34;5086297;28;20632;-75
2022/12/22 08:43:03;;;;;;;;;;;;;;;7.05;100.00;100388.06;5085074;28;19919;-75
2022/12/22 08:45:29;;;;;;;;;;;;;;;7.05;100.00;100382.81;5086511;28;20366;-75
2022/12/22 08:47:54;;;;;;;;;;;;;;;6.82;100.00;100383.09;5083908;28;19928;-75
2022/12/22 08:50:19;;;;;;;;;;;;;;;6.83;100.00;100382.09;5085757;28;19916;-75
2022/12/22 08:52:44;;;;;;;;;;;;;;;6.98;100.00;100393.84;5086295;28;20400;-75
2022/12/22 08:55:10;;;;;;;;;;;;;;;6.98;100.00;100391.22;5085276;28;19989;-75
2022/12/22 08:57:36;;;;;;;;;;;;;;;7.08;100.00;100399.09;5088609;28;20214;-75
2022/12/22 09:00:01;;;;;;;;;;;;;;;7.08;100.00;100393.03;5088857;28;19915;-76
2022/12/22 09:02:27;;;;;;;;;;;;;;;6.99;100.00;100398.16;5089389;28;19946;-75
2022/12/22 09:04:52;;;;;;;;;;;;;;;7.08;100.00;100399.09;5088322;28;20006;-75
2022/12/22 09:07:18;;;;;;;;;;;;;;;7.03;100.00;100406.53;5089432;28;19920;-75
2022/12/22 09:09:44;;;;;;;;;;;;;;;7.07;100.00;100412.38;5086981;28;19931;-75
2022/12/22 09:12:09;;;;;;;;;;;;;;;7.17;100.00;100415.81;5088817;28;19919;-76
2022/12/22 09:14:34;;;;;;;;;;;;;;;7.11;100.00;100417.19;5089459;28;20367;-75
2022/12/22 09:17:00;;;;;;;;;;;;;;;7.05;100.00;100415.13;5090137;28;19965;-75
2022/12/22 09:19:25;;;;;;;;;;;;;;;7.14;100.00;100418.72;5089660;28;19920;-76
2022/12/22 09:21:50;;;;;;;;;;;;;;;7.21;100.00;100423.28;5089134;28;19988;-76
2022/12/22 09:24:15;;;;;;;;;;;;;;;7.13;100.00;100417.88;5089892;28;20127;-75
2022/12/22 09:26:41;;;;;;;;;;;;;;;7.14;100.00;100418.72;5089269;28;20338;-75
2022/12/22 09:29:07;;;;;;;;;;;;;;;7.13;100.00;100420.50;5089636;28;19912;-75
2022/12/22 09:31:32;;;;;;;;;;;;;;;7.20;100.00;100428.66;5089374;28;19993;-76
2022/12/22 09:33:58;;;;;;;;;;;;;;;7.26;100.00;100430.72;5087399;28;19915;-75
2022/12/22 09:36:25;;;;;;;;;;;;;;;7.28;100.00;100420.94;5089084;28;20183;-76
2022/12/22 09:38:50;;;;;;;;;;;;;;;7.35;100.00;100418.56;5089855;28;19961;-75
2022/12/22 09:41:16;;;;;;;;;;;;;;;7.33;100.00;100413.44;5088909;28;19916;-74
2022/12/22 09:43:41;;;;;;;;;;;;;;;7.44;100.00;100419.53;5088882;28;20218;-76
2022/12/22 09:46:17;;;;;;;;;;;;;;;7.53;100.00;100419.50;5088885;28;20525;-75
2022/12/22 09:48:42;;;;;;;;;;;;;;;7.56;100.00;100428.91;5089140;28;20379;-75
2022/12/22 09:51:10;;;;;;;;;;;;;;;7.61;100.00;100438.03;5088991;28;20722;-76
2022/12/22 09:53:36;;;;;;;;;;;;;;;7.64;100.00;100423.78;5086382;28;20388;-75
2022/12/22 09:56:01;;;;;;;;;;;;;;;7.77;100.00;100423.47;5088900;28;19919;-76
2022/12/22 09:58:31;;;;;;;;;;;;;;;7.66;100.00;100424.47;5086770;28;19916;-76
2022/12/22 10:00:56;;;;;;;;;;;;;;;7.68;100.00;100417.28;5089431;28;19985;-76
2022/12/22 10:03:33;;;;;;;;;;;;;;;8.03;100.00;100418.41;5088650;28;19916;-74
2022/12/22 10:06:15;;;;;;;;;;;;;;;8.54;100.00;100427.63;5089382;28;20261;-76
2022/12/22 10:08:40;;;;;;;;;;;;;;;9.86;100.00;100427.81;5094809;28;20374;-76
2022/12/22 10:11:06;;;;;;;;;;;;;;;11.02;100.00;100421.16;5089203;28;19923;-76
2022/12/22 10:13:32;;;;;;;;;;;;;;;10.99;100.00;100380.03;5070666;28;20441;-76
2022/12/22 10:15:57;;;;;;;;;;;;;;;11.51;100.00;100363.84;5088743;28;19919;-75
2022/12/22 10:18:26;;;;;;;;;;;;;;;11.66;100.00;100352.59;5089926;28;19926;-76
2022/12/22 10:21:11;;;;;;;;;;;;;;;11.40;100.00;100339.59;5086990;28;20428;-76
2022/12/22 10:23:38;;;;;;;;;;;;;;;10.94;100.00;100337.47;5094397;28;20125;-76
2022/12/22 10:26:12;;;;;;;;;;;;;;;10.33;100.00;100338.72;5088489;28;19923;-76
2022/12/22 10:28:43;;;;;;;;;;;;;;;9.75;100.00;100341.06;5088762;28;19960;-76
2022/12/22 10:31:10;;;;;;;;;;;;;;;9.81;100.00;100345.72;5088064;28;20026;-76
2022/12/22 10:33:35;;;;;;;;;;;;;;;10.12;100.00;100353.09;5087972;28;19912;-76
2022/12/22 10:36:01;;;;;;;;;;;;;;;10.75;100.00;100359.72;5088115;28;19915;-76
2022/12/22 10:38:30;;;;;;;;;;;;;;;11.57;100.00;100359.72;5088713;28;19947;-75
2022/12/22 10:40:57;;;;;;;;;;;;;;;12.38;100.00;100357.78;5087606;28;19912;-76
2022/12/22 10:43:24;;;;;;;;;;;;;;;11.73;100.00;100349.09;5087303;28;19912;-76
2022/12/22 10:45:50;;;;;;;;;;;;;;;11.93;100.00;100346.94;5095364;28;19918;-76
2022/12/22 10:48:16;;;;;;;;;;;;;;;12.17;100.00;100357.56;5088363;28;20225;-76
2022/12/22 10:50:48;;;;;;;;;;;;;;;12.12;100.00;100350.16;5088171;28;19912;-76
2022/12/22 10:53:13;;;;;;;;;;;;;;;11.68;100.00;100358.53;5086734;28;20288;-76
2022/12/22 10:55:39;;;;;;;;;;;;;;;10.91;100.00;100357.13;5088334;28;20052;-76
2022/12/22 10:58:10;;;;;;;;;;;;;;;10.72;100.00;100360.06;5088183;28;20127;-76
2022/12/22 11:00:37;;;;;;;;;;;;;;;10.44;100.00;100364.78;5087604;28;19918;-76
2022/12/22 11:03:10;;;;;;;;;;;;;;;10.82;100.00;100367.81;5087217;28;19976;-76
2022/12/22 11:05:35;;;;;;;;;;;;;;;11.16;100.00;100365.03;5087358;28;19919;-76
2022/12/22 11:08:11;;;;;;;;;;;;;;;11.50;100.00;100364.84;5069578;28;19955;-76
2022/12/22 11:10:48;;;;;;;;;;;;;;;11.83;100.00;100359.47;5094421;28;20415;-76
2022/12/22 11:13:28;;;;;;;;;;;;;;;12.00;100.00;100355.00;5091568;28;19916;-75
2022/12/22 11:16:01;;;;;;;;;;;;;;;11.99;100.00;100348.03;5090084;28;19911;-76
2022/12/22 11:18:32;;;;;;;;;;;;;;;11.63;100.00;100347.66;5088202;28;20355;-76
2022/12/22 11:21:09;;;;;;;;;;;;;;;11.50;100.00;100350.81;5086829;28;20401;-76
2022/12/22 11:23:52;;;;;;;;;;;;;;;11.24;100.00;100348.38;5085799;28;19912;-75
2022/12/22 11:26:44;;;;;;;;;;;;;;;11.12;100.00;100361.88;5086764;28;20376;-76
2022/12/22 11:29:27;;;;;;;;;;;;;;;10.78;100.00;100366.50;5084959;28;20022;-76
2022/12/22 11:32:01;;;;;;;;;;;;;;;10.64;100.00;100376.69;5087514;28;19961;-75
2022/12/22 11:34:36;;;;;;;;;;;;;;;10.35;100.00;100376.31;5083648;28;19912;-76
2022/12/22 11:37:27;;;;;;;;;;;;;;;10.22;100.00;100380.19;5087647;28;20385;-75
2022/12/22 11:39:53;;;;;;;;;;;;;;;10.15;100.00;100373.91;5087738;28;19995;-75
2022/12/22 11:42:37;;;;;;;;;;;;;;;10.03;100.00;100367.25;5087916;28;19918;-76
2022/12/22 11:45:15;;;;;;;;;;;;;;;10.00;100.00;100370.22;5087385;28;19981;-76
2022/12/22 11:47:53;;;;;;;;;;;;;;;9.96;100.00;100363.59;5087216;28;19918;-76
2022/12/22 11:50:41;;;;;;;;;;;;;;;9.72;100.00;100366.94;5094169;28;20443;-76
2022/12/22 11:53:20;;;;;;;;;;;;;;;9.65;100.00;100369.38;5077454;28;19957;-76
2022/12/22 11:55:58;;;;;;;;;;;;;;;9.59;100.00;100372.63;5086660;28;20449;-76
2022/12/22 11:58:26;;;;;;;;;;;;;;;9.46;100.00;100379.09;5087080;28;20340;-75
2022/12/22 12:00:54;;;;;;;;;;;;;;;9.54;100.00;100380.13;5086322;28;19918;-76
2022/12/22 12:03:23;;;;;;;;;;;;;;;9.34;100.00;100376.88;5084304;28;19912;-76
2022/12/22 12:06:06;;;;;;;;;;;;;;;9.33;100.00;100365.53;5087517;28;19912;-75
2022/12/22 12:08:40;;;;;;;;;;;;;;;9.40;100.00;100366.56;5087762;28;19927;-75
2022/12/22 12:11:16;;;;;;;;;;;;;;;9.41;100.00;100373.50;5086229;28;19918;-76
2022/12/22 12:13:54;;;;;;;;;;;;;;;9.34;100.00;100380.34;5085928;28;19911;-75
2022/12/22 12:16:33;;;;;;;;;;;;;;;9.42;100.00;100376.94;5086723;28;19919;-75
2022/12/22 12:19:14;;;;;;;;;;;;;;;9.32;100.00;100370.94;5086880;28;19916;-75
2022/12/22 12:21:50;;;;;;;;;;;;;;;9.23;100.00;100384.06;5085873;28;20246;-76
2022/12/22 12:24:25;;;;;;;;;;;;;;;9.21;100.00;100383.38;5086599;28;20376;-75
2022/12/22 12:26:53;;;;;;;;;;;;;;;9.22;100.00;100382.38;5086353;28;19920;-76
2022/12/22 12:29:20;;;;;;;;;;;;;;;9.08;100.00;100380.31;5086182;28;19920;-76
2022/12/22 12:31:48;;;;;;;;;;;;;;;9.00;100.00;100386.31;5087802;28;19938;-76
2022/12/22 12:34:15;;;;;;;;;;;;;;;8.93;100.00;100381.81;5089635;28;20384;-76
2022/12/22 12:36:44;;;;;;;;;;;;;;;8.97;100.00;100384.00;5097703;28;19911;-74
2022/12/22 12:39:12;;;;;;;;;;;;;;;8.88;100.00;100384.88;5090792;28;19989;-75
2022/12/22 12:41:55;;;;;;;;;;;;;;;8.98;100.00;100390.91;5090472;28;20211;-75
2022/12/22 12:44:23;;;;;;;;;;;;;;;8.87;100.00;100393.78;5089842;28;19957;-75
2022/12/22 12:46:51;;;;;;;;;;;;;;;8.71;100.00;100404.13;5090023;28;20635;-75
2022/12/22 12:49:35;;;;;;;;;;;;;;;8.75;100.00;100408.13;5090937;28;20044;-75
2022/12/22 12:52:04;;;;;;;;;;;;;;;8.79;100.00;100404.22;5089701;28;19923;-75
2022/12/22 12:54:35;;;;;;;;;;;;;;;8.74;100.00;100414.38;5096832;28;19938;-76
2022/12/22 12:57:09;;;;;;;;;;;;;;;8.76;100.00;100418.50;5090604;28;19957;-75
2022/12/22 12:59:40;;;;;;;;;;;;;;;8.82;100.00;100409.19;5090306;28;19912;-75
2022/12/22 13:02:25;;;;;;;;;;;;;;;8.75;100.00;100405.47;5090341;28;19922;-76
2022/12/22 13:05:02;;;;;;;;;;;;;;;8.78;100.00;100394.69;5076440;28;20481;-75
2022/12/22 13:07:57;;;;;;;;;;;;;;;8.74;100.00;100395.94;5089859;28;20377;-75
2022/12/22 13:10:23;;;;;;;;;;;;;;;8.75;100.00;100408.94;5074766;28;19919;-75
2022/12/22 13:12:52;;;;;;;;;;;;;;;8.69;100.00;100409.56;5089584;28;19918;-76
2022/12/22 13:15:35;;;;;;;;;;;;;;;8.70;100.00;100416.44;5089093;28;19998;-75
2022/12/22 13:18:02;;;;;;;;;;;;;;;8.81;100.00;100410.16;5089773;27;20030;-75
2022/12/22 13:20:30;;;;;;;;;;;;;;;8.83;100.00;100409.03;5104938;27;20410;-75
2022/12/22 13:22:57;;;;;;;;;;;;;;;8.75;100.00;100410.75;5090350;28;19919;-75
2022/12/22 13:25:23;;;;;;;;;;;;;;;8.85;100.00;100411.50;5090400;28;19912;-75
2022/12/22 13:27:49;;;;;;;;;;;;;;;8.83;100.00;100414.28;5090961;28;19989;-75
2022/12/22 13:30:16;;;;;;;;;;;;;;;8.79;100.00;100422.63;5091769;28;19923;-75
2022/12/22 13:32:41;;;;;;;;;;;;;;;8.82;100.00;100427.63;5090671;28;19920;-75
2022/12/22 13:35:19;;;;;;;;;;;;;;;8.80;100.00;100426.94;5090239;28;20380;-76
2022/12/22 13:37:47;;;;;;;;;;;;;;;8.96;100.00;100427.09;5092118;28;20044;-75
2022/12/22 13:40:13;;;;;;;;;;;;;;;8.93;100.00;100424.75;5094769;28;19916;-75
2022/12/22 13:42:44;;;;;;;;;;;;;;;8.93;100.00;100427.38;5089335;28;19923;-75
2022/12/22 13:45:17;;;;;;;;;;;;;;;8.76;100.00;100428.19;5088016;28;19916;-76
2022/12/22 13:47:43;;;;;;;;;;;;;;;8.88;100.00;100432.25;5091238;28;20439;-75
2022/12/22 13:50:19;;;;;;;;;;;;;;;8.88;100.00;100426.16;5092144;28;19912;-76
2022/12/22 13:52:45;;;;;;;;;;;;;;;8.83;100.00;100429.25;5106604;27;20203;-76
2022/12/22 13:55:15;;;;;;;;;;;;;;;8.67;100.00;100427.28;5090860;28;20556;-76
2022/12/22 13:57:40;;;;;;;;;;;;;;;8.71;100.00;100430.44;5096015;28;19929;-75
2022/12/22 14:00:16;;;;;;;;;;;;;;;8.76;100.00;100436.91;5091172;28;19915;-75
2022/12/22 14:02:43;;;;;;;;;;;;;;;8.79;100.00;100441.06;5089574;28;19922;-75
2022/12/22 14:05:10;;;;;;;;;;;;;;;8.73;100.00;100444.28;5089289;28;19946;-75
2022/12/22 14:07:35;;;;;;;;;;;;;;;8.60;100.00;100445.47;5090430;28;20315;-76
2022/12/22 14:10:00;;;;;;;;;;;;;;;8.67;100.00;100455.38;5090692;28;19931;-75
2022/12/22 14:12:27;;;;;;;;;;;;;;;8.56;100.00;100448.53;5090799;28;20151;-76
2022/12/22 14:14:53;;;;;;;;;;;;;;;8.57;100.00;100451.00;5089228;28;19939;-75
2022/12/22 14:17:21;;;;;;;;;;;;;;;8.54;100.00;100453.94;5091167;28;19954;-75
2022/12/22 14:19:48;;;;;;;;;;;;;;;8.60;100.00;100457.75;5088510;28;20333;-75
2022/12/22 14:22:16;;;;;;;;;;;;;;;8.61;100.00;100455.00;5090887;28;19984;-75
2022/12/22 14:24:54;;;;;;;;;;;;;;;8.69;100.00;100456.06;5090179;28;19950;-75
2022/12/22 14:27:29;;;;;;;;;;;;;;;8.63;100.00;100457.50;5094540;28;19955;-76
2022/12/22 14:29:54;;;;;;;;;;;;;;;8.70;100.00;100463.00;5091845;28;19911;-75
2022/12/22 14:32:37;;;;;;;;;;;;;;;8.68;100.00;100467.56;5090451;28;20420;-75
2022/12/22 14:35:03;;;;;;;;;;;;;;;8.71;100.00;100462.00;5088118;28;19949;-75
2022/12/22 14:37:28;;;;;;;;;;;;;;;8.70;100.00;100461.19;5090462;28;20291;-75
2022/12/22 14:39:54;;;;;;;;;;;;;;;8.74;100.00;100449.38;5088260;28;19920;-76
2022/12/22 14:42:19;;;;;;;;;;;;;;;8.85;100.00;100451.81;5090393;28;20226;-76
2022/12/22 14:44:46;;;;;;;;;;;;;;;8.72;100.00;100453.16;5088028;28;20817;-75
2022/12/22 14:47:11;;;;;;;;;;;;;;;8.81;100.00;100453.06;5090261;28;20350;-75
2022/12/22 14:49:57;;;;;;;;;;;;;;;8.84;100.00;100457.22;5091402;28;19912;-76
2022/12/22 14:52:25;;;;;;;;;;;;;;;8.82;100.00;100448.66;5089983;28;20053;-76
2022/12/22 14:54:52;;;;;;;;;;;;;;;8.76;100.00;100452.69;5090226;28;20031;-76
2022/12/22 14:57:27;;;;;;;;;;;;;;;8.68;100.00;100447.34;5088976;28;19918;-76
2022/12/22 14:59:57;;;;;;;;;;;;;;;8.73;100.00;100454.78;5088858;28;20382;-76
2022/12/22 15:02:26;;;;;;;;;;;;;;;8.75;100.00;100453.66;5089604;28;19988;-76
2022/12/22 15:05:14;;;;;;;;;;;;;;;8.74;100.00;100446.75;5095519;28;20931;-75
2022/12/22 15:07:53;;;;;;;;;;;;;;;8.73;100.00;100439.84;5090323;28;19919;-74
2022/12/22 15:10:18;;;;;;;;;;;;;;;8.67;100.00;100439.59;5088093;28;20374;-75
2022/12/22 15:12:45;;;;;;;;;;;;;;;8.54;100.00;100443.41;5085445;28;19927;-76
2022/12/22 15:15:18;;;;;;;;;;;;;;;8.55;100.00;100442.44;5084770;28;19915;-75
2022/12/22 15:17:48;;;;;;;;;;;;;;;8.54;100.00;100443.41;5085323;28;20285;-75
2022/12/22 15:20:21;;;;;;;;;;;;;;;8.48;100.00;100453.69;5086258;28;20390;-75
2022/12/22 15:22:46;;;;;;;;;;;;;;;8.44;100.00;100453.16;5086182;28;20314;-75
2022/12/22 15:25:13;;;;;;;;;;;;;;;8.39;100.00;100448.28;5086731;28;19920;-75
2022/12/22 15:27:38;;;;;;;;;;;;;;;8.37;100.00;100455.50;5085538;28;19924;-76
2022/12/22 15:30:04;;;;;;;;;;;;;;;8.35;100.00;100456.63;5086121;28;20350;-75
2022/12/22 15:32:29;;;;;;;;;;;;;;;8.28;100.00;100450.31;5086527;28;20677;-75
2022/12/22 15:34:55;;;;;;;;;;;;;;;8.30;100.00;100451.81;5084855;28;19922;-74
2022/12/22 15:37:20;;;;;;;;;;;;;;;8.26;100.00;100458.31;5085913;28;19916;-75
2022/12/22 15:39:46;;;;;;;;;;;;;;;8.26;100.00;100452.25;5085259;28;19922;-74
2022/12/22 15:42:11;;;;;;;;;;;;;;;8.39;100.00;100458.00;5086078;28;19927;-74
2022/12/22 15:44:36;;;;;;;;;;;;;;;8.37;100.00;100457.31;5086086;28;20282;-75
2022/12/22 15:47:02;;;;;;;;;;;;;;;8.40;100.00;100452.59;5084070;28;19935;-75
2022/12/22 15:49:28;;;;;;;;;;;;;;;8.43;100.00;100460.22;5086835;28;19984;-74
2022/12/22 15:51:55;;;;;;;;;;;;;;;8.36;100.00;100455.63;5085747;28;19927;-75
2022/12/22 15:54:20;;;;;;;;;;;;;;;8.28;100.00;100458.19;5085005;28;20387;-73
2022/12/22 15:56:46;;;;;;;;;;;;;;;8.29;100.00;100451.94;5087038;28;19915;-75
2022/12/22 15:59:14;;;;;;;;;;;;;;;8.31;100.00;100450.00;5084358;28;19916;-74
2022/12/22 16:01:39;;;;;;;;;;;;;;;8.22;100.00;100444.63;5085369;28;19924;-75
2022/12/22 16:04:04;;;;;;;;;;;;;;;8.12;100.00;100446.47;5088855;28;20023;-75
2022/12/22 16:06:30;;;;;;;;;;;;;;;8.06;100.00;100451.47;5081993;28;19977;-75
2022/12/22 16:08:55;;;;;;;;;;;;;;;8.09;100.00;100462.53;5086017;28;19923;-75
2022/12/22 16:11:20;;;;;;;;;;;;;;;8.06;100.00;100461.97;5085113;28;20361;-75
2022/12/22 16:13:46;;;;;;;;;;;;;;;8.12;100.00;100466.66;5068535;28;20299;-75
2022/12/22 16:16:12;;;;;;;;;;;;;;;8.05;100.00;100466.41;5085857;28;20429;-76
2022/12/22 16:18:37;;;;;;;;;;;;;;;8.07;100.00;100464.47;5086048;28;19919;-75
2022/12/22 16:21:07;;;;;;;;;;;;;;;8.02;100.00;100461.44;5083730;28;20385;-74
2022/12/22 16:23:33;;;;;;;;;;;;;;;8.10;100.00;100460.72;5084192;28;20548;-74